sensor_id;sensor_type;location;lat;lon;timestamp;P1;durP1;ratioP1;P2;durP2;ratioP2
35128;SDS011;21301;43.626;10.580;2024-01-30T00:02:09;13.70;;;6.00;;
35128;SDS011;21301;43.626;10.580;2024-01-30T00:04:35;18.42;;;8.95;;
35128;SDS011;21301;43.626;10.580;2024-01-30T00:07:00;13.65;;;6.80;;
35128;SDS011;21301;43.626;10.580;2024-01-30T00:09:26;15.73;;;7.13;;
35128;SDS011;21301;43.626;10.580;2024-01-30T00:11:54;11.80;;;6.25;;
35128;SDS011;21301;43.626;10.580;2024-01-30T00:14:19;12.20;;;7.63;;
35128;SDS011;21301;43.626;10.580;2024-01-30T00:16:45;11.43;;;5.88;;
35128;SDS011;21301;43.626;10.580;2024-01-30T00:19:10;10.80;;;5.85;;
35128;SDS011;21301;43.626;10.580;2024-01-30T00:21:36;11.05;;;5.50;;
35128;SDS011;21301;43.626;10.580;2024-01-30T00:24:02;11.95;;;5.30;;
35128;SDS011;21301;43.626;10.580;2024-01-30T00:26:28;13.00;;;5.78;;
35128;SDS011;21301;43.626;10.580;2024-01-30T00:28:53;12.60;;;6.25;;
35128;SDS011;21301;43.626;10.580;2024-01-30T00:31:19;14.40;;;6.03;;
35128;SDS011;21301;43.626;10.580;2024-01-30T00:33:44;11.77;;;6.10;;
35128;SDS011;21301;43.626;10.580;2024-01-30T00:36:10;13.80;;;6.78;;
35128;SDS011;21301;43.626;10.580;2024-01-30T00:38:36;11.27;;;5.88;;
35128;SDS011;21301;43.626;10.580;2024-01-30T00:41:02;11.07;;;5.78;;
35128;SDS011;21301;43.626;10.580;2024-01-30T00:43:28;12.48;;;5.65;;
35128;SDS011;21301;43.626;10.580;2024-01-30T00:45:54;11.80;;;6.15;;
35128;SDS011;21301;43.626;10.580;2024-01-30T00:48:19;15.63;;;6.88;;
35128;SDS011;21301;43.626;10.580;2024-01-30T00:50:45;11.82;;;5.20;;
35128;SDS011;21301;43.626;10.580;2024-01-30T00:53:11;15.10;;;5.55;;
35128;SDS011;21301;43.626;10.580;2024-01-30T00:55:37;15.05;;;5.40;;
35128;SDS011;21301;43.626;10.580;2024-01-30T00:58:02;9.77;;;5.38;;
35128;SDS011;21301;43.626;10.580;2024-01-30T01:00:28;10.45;;;5.03;;
35128;SDS011;21301;43.626;10.580;2024-01-30T01:02:57;12.18;;;5.55;;
35128;SDS011;21301;43.626;10.580;2024-01-30T01:05:26;8.95;;;5.00;;
35128;SDS011;21301;43.626;10.580;2024-01-30T01:07:52;12.77;;;6.35;;
35128;SDS011;21301;43.626;10.580;2024-01-30T01:10:18;10.80;;;5.53;;
35128;SDS011;21301;43.626;10.580;2024-01-30T01:12:44;13.82;;;7.57;;
35128;SDS011;21301;43.626;10.580;2024-01-30T01:15:10;12.05;;;5.28;;
35128;SDS011;21301;43.626;10.580;2024-01-30T01:17:36;10.27;;;5.32;;
35128;SDS011;21301;43.626;10.580;2024-01-30T01:20:05;13.35;;;6.18;;
35128;SDS011;21301;43.626;10.580;2024-01-30T01:22:32;13.38;;;6.03;;
35128;SDS011;21301;43.626;10.580;2024-01-30T01:24:58;11.90;;;6.13;;
35128;SDS011;21301;43.626;10.580;2024-01-30T01:27:24;9.95;;;4.65;;
35128;SDS011;21301;43.626;10.580;2024-01-30T01:29:50;10.80;;;5.43;;
35128;SDS011;21301;43.626;10.580;2024-01-30T01:32:18;9.48;;;4.72;;
35128;SDS011;21301;43.626;10.580;2024-01-30T01:34:44;10.93;;;5.53;;
35128;SDS011;21301;43.626;10.580;2024-01-30T01:37:10;13.30;;;5.25;;
35128;SDS011;21301;43.626;10.580;2024-01-30T01:39:35;13.80;;;4.85;;
35128;SDS011;21301;43.626;10.580;2024-01-30T01:42:01;11.48;;;5.30;;
35128;SDS011;21301;43.626;10.580;2024-01-30T01:44:27;10.15;;;5.68;;
35128;SDS011;21301;43.626;10.580;2024-01-30T01:46:53;9.02;;;4.80;;
35128;SDS011;21301;43.626;10.580;2024-01-30T01:49:19;13.27;;;5.63;;
35128;SDS011;21301;43.626;10.580;2024-01-30T01:51:45;10.60;;;5.07;;
35128;SDS011;21301;43.626;10.580;2024-01-30T01:54:13;10.57;;;4.82;;
35128;SDS011;21301;43.626;10.580;2024-01-30T01:56:39;13.07;;;5.82;;
35128;SDS011;21301;43.626;10.580;2024-01-30T01:59:06;11.38;;;5.28;;
35128;SDS011;21301;43.626;10.580;2024-01-30T02:01:33;7.13;;;4.35;;
35128;SDS011;21301;43.626;10.580;2024-01-30T02:04:01;10.80;;;4.53;;
35128;SDS011;21301;43.626;10.580;2024-01-30T02:06:27;8.57;;;4.75;;
35128;SDS011;21301;43.626;10.580;2024-01-30T02:08:54;10.93;;;4.90;;
35128;SDS011;21301;43.626;10.580;2024-01-30T02:11:20;10.32;;;5.20;;
35128;SDS011;21301;43.626;10.580;2024-01-30T02:13:48;11.38;;;5.05;;
35128;SDS011;21301;43.626;10.580;2024-01-30T02:16:13;10.93;;;4.10;;
35128;SDS011;21301;43.626;10.580;2024-01-30T02:18:39;9.27;;;4.57;;
35128;SDS011;21301;43.626;10.580;2024-01-30T02:21:12;9.68;;;4.72;;
35128;SDS011;21301;43.626;10.580;2024-01-30T02:23:37;9.60;;;4.78;;
35128;SDS011;21301;43.626;10.580;2024-01-30T02:26:04;6.43;;;3.60;;
35128;SDS011;21301;43.626;10.580;2024-01-30T02:28:30;12.30;;;5.03;;
35128;SDS011;21301;43.626;10.580;2024-01-30T02:30:55;9.55;;;4.93;;
35128;SDS011;21301;43.626;10.580;2024-01-30T02:33:22;8.77;;;4.50;;
35128;SDS011;21301;43.626;10.580;2024-01-30T02:35:48;9.00;;;4.80;;
35128;SDS011;21301;43.626;10.580;2024-01-30T02:38:15;13.85;;;5.63;;
35128;SDS011;21301;43.626;10.580;2024-01-30T02:40:40;14.15;;;5.00;;
35128;SDS011;21301;43.626;10.580;2024-01-30T02:43:06;8.60;;;4.65;;
35128;SDS011;21301;43.626;10.580;2024-01-30T02:45:32;8.15;;;4.60;;
35128;SDS011;21301;43.626;10.580;2024-01-30T02:47:57;9.52;;;4.60;;
35128;SDS011;21301;43.626;10.580;2024-01-30T02:50:23;7.43;;;3.50;;
35128;SDS011;21301;43.626;10.580;2024-01-30T02:52:50;12.25;;;4.38;;
35128;SDS011;21301;43.626;10.580;2024-01-30T02:55:15;10.07;;;4.05;;
35128;SDS011;21301;43.626;10.580;2024-01-30T02:57:44;9.88;;;4.80;;
35128;SDS011;21301;43.626;10.580;2024-01-30T03:00:09;10.55;;;4.78;;
35128;SDS011;21301;43.626;10.580;2024-01-30T03:02:36;10.32;;;4.65;;
35128;SDS011;21301;43.626;10.580;2024-01-30T03:05:02;6.93;;;4.25;;
35128;SDS011;21301;43.626;10.580;2024-01-30T03:07:29;8.73;;;4.40;;
35128;SDS011;21301;43.626;10.580;2024-01-30T03:09:54;8.65;;;4.22;;
35128;SDS011;21301;43.626;10.580;2024-01-30T03:12:21;8.30;;;4.25;;
35128;SDS011;21301;43.626;10.580;2024-01-30T03:14:46;8.43;;;4.40;;
35128;SDS011;21301;43.626;10.580;2024-01-30T03:17:12;10.82;;;4.50;;
35128;SDS011;21301;43.626;10.580;2024-01-30T03:19:38;9.95;;;4.15;;
35128;SDS011;21301;43.626;10.580;2024-01-30T03:22:03;10.07;;;4.72;;
35128;SDS011;21301;43.626;10.580;2024-01-30T03:24:29;8.13;;;3.88;;
35128;SDS011;21301;43.626;10.580;2024-01-30T03:26:54;10.65;;;4.53;;
35128;SDS011;21301;43.626;10.580;2024-01-30T03:29:20;12.30;;;4.72;;
35128;SDS011;21301;43.626;10.580;2024-01-30T03:31:45;8.70;;;4.32;;
35128;SDS011;21301;43.626;10.580;2024-01-30T03:34:11;13.68;;;4.63;;
35128;SDS011;21301;43.626;10.580;2024-01-30T03:36:36;7.32;;;4.15;;
35128;SDS011;21301;43.626;10.580;2024-01-30T03:39:03;7.75;;;3.65;;
35128;SDS011;21301;43.626;10.580;2024-01-30T03:41:28;6.65;;;3.47;;
35128;SDS011;21301;43.626;10.580;2024-01-30T03:43:54;9.20;;;4.28;;
35128;SDS011;21301;43.626;10.580;2024-01-30T03:46:19;12.55;;;5.10;;
35128;SDS011;21301;43.626;10.580;2024-01-30T03:48:45;8.65;;;4.35;;
35128;SDS011;21301;43.626;10.580;2024-01-30T03:51:11;10.02;;;3.47;;
35128;SDS011;21301;43.626;10.580;2024-01-30T03:53:43;6.65;;;3.50;;
35128;SDS011;21301;43.626;10.580;2024-01-30T03:56:11;8.63;;;3.95;;
35128;SDS011;21301;43.626;10.580;2024-01-30T03:58:38;7.53;;;4.10;;
35128;SDS011;21301;43.626;10.580;2024-01-30T04:01:03;8.60;;;3.65;;
35128;SDS011;21301;43.626;10.580;2024-01-30T04:03:29;7.03;;;3.63;;
35128;SDS011;21301;43.626;10.580;2024-01-30T04:05:54;7.25;;;3.63;;
35128;SDS011;21301;43.626;10.580;2024-01-30T04:08:20;10.35;;;3.90;;
35128;SDS011;21301;43.626;10.580;2024-01-30T04:10:46;11.00;;;3.72;;
35128;SDS011;21301;43.626;10.580;2024-01-30T04:13:12;9.73;;;4.28;;
35128;SDS011;21301;43.626;10.580;2024-01-30T04:15:38;7.00;;;3.50;;
35128;SDS011;21301;43.626;10.580;2024-01-30T04:18:04;7.32;;;3.78;;
35128;SDS011;21301;43.626;10.580;2024-01-30T04:20:30;9.02;;;4.43;;
35128;SDS011;21301;43.626;10.580;2024-01-30T04:22:55;7.63;;;3.72;;
35128;SDS011;21301;43.626;10.580;2024-01-30T04:25:21;7.35;;;3.88;;
35128;SDS011;21301;43.626;10.580;2024-01-30T04:27:47;9.60;;;3.88;;
35128;SDS011;21301;43.626;10.580;2024-01-30T04:30:13;10.10;;;4.25;;
35128;SDS011;21301;43.626;10.580;2024-01-30T04:32:39;8.90;;;3.70;;
35128;SDS011;21301;43.626;10.580;2024-01-30T04:35:05;10.43;;;5.57;;
35128;SDS011;21301;43.626;10.580;2024-01-30T04:37:30;11.07;;;4.93;;
35128;SDS011;21301;43.626;10.580;2024-01-30T04:39:56;10.15;;;4.80;;
35128;SDS011;21301;43.626;10.580;2024-01-30T04:42:22;10.30;;;4.93;;
35128;SDS011;21301;43.626;10.580;2024-01-30T04:44:47;8.90;;;5.00;;
35128;SDS011;21301;43.626;10.580;2024-01-30T04:47:13;13.27;;;5.25;;
35128;SDS011;21301;43.626;10.580;2024-01-30T04:49:39;9.80;;;5.07;;
35128;SDS011;21301;43.626;10.580;2024-01-30T04:52:05;8.55;;;4.50;;
35128;SDS011;21301;43.626;10.580;2024-01-30T04:54:31;8.45;;;4.18;;
35128;SDS011;21301;43.626;10.580;2024-01-30T04:56:58;8.73;;;4.18;;
35128;SDS011;21301;43.626;10.580;2024-01-30T04:59:24;7.32;;;4.25;;
35128;SDS011;21301;43.626;10.580;2024-01-30T05:01:49;9.88;;;4.40;;
35128;SDS011;21301;43.626;10.580;2024-01-30T05:04:15;11.05;;;5.88;;
35128;SDS011;21301;43.626;10.580;2024-01-30T05:06:41;13.32;;;7.43;;
35128;SDS011;21301;43.626;10.580;2024-01-30T05:09:06;13.15;;;7.38;;
35128;SDS011;21301;43.626;10.580;2024-01-30T05:11:39;17.40;;;6.53;;
35128;SDS011;21301;43.626;10.580;2024-01-30T05:14:05;12.23;;;7.22;;
35128;SDS011;21301;43.626;10.580;2024-01-30T05:16:31;13.20;;;7.40;;
35128;SDS011;21301;43.626;10.580;2024-01-30T05:18:58;11.82;;;6.45;;
35128;SDS011;21301;43.626;10.580;2024-01-30T05:21:24;13.32;;;6.72;;
35128;SDS011;21301;43.626;10.580;2024-01-30T05:23:50;10.45;;;5.65;;
35128;SDS011;21301;43.626;10.580;2024-01-30T05:26:17;9.43;;;5.63;;
35128;SDS011;21301;43.626;10.580;2024-01-30T05:28:43;12.25;;;5.63;;
35128;SDS011;21301;43.626;10.580;2024-01-30T05:31:11;10.23;;;5.40;;
35128;SDS011;21301;43.626;10.580;2024-01-30T05:33:37;9.70;;;4.80;;
35128;SDS011;21301;43.626;10.580;2024-01-30T05:36:03;8.18;;;5.35;;
35128;SDS011;21301;43.626;10.580;2024-01-30T05:38:29;10.57;;;5.82;;
35128;SDS011;21301;43.626;10.580;2024-01-30T05:40:58;14.32;;;5.93;;
35128;SDS011;21301;43.626;10.580;2024-01-30T05:43:26;12.23;;;6.75;;
35128;SDS011;21301;43.626;10.580;2024-01-30T05:45:52;12.55;;;7.10;;
35128;SDS011;21301;43.626;10.580;2024-01-30T05:48:17;12.10;;;6.05;;
35128;SDS011;21301;43.626;10.580;2024-01-30T05:50:44;12.55;;;6.72;;
35128;SDS011;21301;43.626;10.580;2024-01-30T05:53:13;12.10;;;6.35;;
35128;SDS011;21301;43.626;10.580;2024-01-30T05:55:38;12.48;;;6.78;;
35128;SDS011;21301;43.626;10.580;2024-01-30T05:58:04;11.85;;;6.95;;
35128;SDS011;21301;43.626;10.580;2024-01-30T06:00:29;10.50;;;6.28;;
35128;SDS011;21301;43.626;10.580;2024-01-30T06:02:57;12.77;;;7.97;;
35128;SDS011;21301;43.626;10.580;2024-01-30T06:05:24;14.00;;;6.80;;
35128;SDS011;21301;43.626;10.580;2024-01-30T06:07:50;14.10;;;5.55;;
35128;SDS011;21301;43.626;10.580;2024-01-30T06:10:16;11.73;;;7.22;;
35128;SDS011;21301;43.626;10.580;2024-01-30T06:12:42;12.73;;;6.43;;
35128;SDS011;21301;43.626;10.580;2024-01-30T06:15:07;12.07;;;6.80;;
35128;SDS011;21301;43.626;10.580;2024-01-30T06:17:33;10.65;;;6.05;;
35128;SDS011;21301;43.626;10.580;2024-01-30T06:19:59;12.48;;;8.75;;
35128;SDS011;21301;43.626;10.580;2024-01-30T06:22:24;14.07;;;7.20;;
35128;SDS011;21301;43.626;10.580;2024-01-30T06:24:50;13.35;;;6.90;;
35128;SDS011;21301;43.626;10.580;2024-01-30T06:27:15;14.60;;;7.50;;
35128;SDS011;21301;43.626;10.580;2024-01-30T06:29:42;12.32;;;7.45;;
35128;SDS011;21301;43.626;10.580;2024-01-30T06:32:08;14.02;;;7.18;;
35128;SDS011;21301;43.626;10.580;2024-01-30T06:34:34;12.98;;;8.77;;
35128;SDS011;21301;43.626;10.580;2024-01-30T06:36:59;14.85;;;8.18;;
35128;SDS011;21301;43.626;10.580;2024-01-30T06:39:26;15.32;;;7.10;;
35128;SDS011;21301;43.626;10.580;2024-01-30T06:41:52;17.27;;;10.15;;
35128;SDS011;21301;43.626;10.580;2024-01-30T06:44:18;14.32;;;8.63;;
35128;SDS011;21301;43.626;10.580;2024-01-30T06:46:43;13.65;;;7.15;;
35128;SDS011;21301;43.626;10.580;2024-01-30T06:49:09;14.88;;;8.68;;
35128;SDS011;21301;43.626;10.580;2024-01-30T06:51:34;16.80;;;8.02;;
35128;SDS011;21301;43.626;10.580;2024-01-30T06:54:00;16.55;;;8.68;;
35128;SDS011;21301;43.626;10.580;2024-01-30T06:56:25;13.50;;;7.93;;
35128;SDS011;21301;43.626;10.580;2024-01-30T06:58:51;23.55;;;10.48;;
35128;SDS011;21301;43.626;10.580;2024-01-30T07:01:17;21.67;;;9.88;;
35128;SDS011;21301;43.626;10.580;2024-01-30T07:03:43;18.50;;;9.32;;
35128;SDS011;21301;43.626;10.580;2024-01-30T07:06:11;16.92;;;8.25;;
35128;SDS011;21301;43.626;10.580;2024-01-30T07:08:37;13.65;;;7.22;;
35128;SDS011;21301;43.626;10.580;2024-01-30T07:11:06;16.27;;;7.57;;
35128;SDS011;21301;43.626;10.580;2024-01-30T07:13:32;13.13;;;8.43;;
35128;SDS011;21301;43.626;10.580;2024-01-30T07:15:58;17.70;;;12.45;;
35128;SDS011;21301;43.626;10.580;2024-01-30T07:18:23;14.60;;;12.02;;
35128;SDS011;21301;43.626;10.580;2024-01-30T07:20:50;18.15;;;11.30;;
35128;SDS011;21301;43.626;10.580;2024-01-30T07:23:15;19.33;;;14.65;;
35128;SDS011;21301;43.626;10.580;2024-01-30T07:25:45;20.08;;;18.33;;
35128;SDS011;21301;43.626;10.580;2024-01-30T07:28:16;26.85;;;24.67;;
35128;SDS011;21301;43.626;10.580;2024-01-30T07:30:43;25.65;;;20.33;;
35128;SDS011;21301;43.626;10.580;2024-01-30T07:33:09;25.00;;;22.40;;
35128;SDS011;21301;43.626;10.580;2024-01-30T07:35:36;18.67;;;16.85;;
35128;SDS011;21301;43.626;10.580;2024-01-30T07:38:02;19.02;;;17.23;;
35128;SDS011;21301;43.626;10.580;2024-01-30T07:40:28;20.92;;;18.88;;
35128;SDS011;21301;43.626;10.580;2024-01-30T07:42:53;22.98;;;20.98;;
35128;SDS011;21301;43.626;10.580;2024-01-30T07:45:19;19.65;;;17.77;;
35128;SDS011;21301;43.626;10.580;2024-01-30T07:47:50;14.73;;;13.25;;
35128;SDS011;21301;43.626;10.580;2024-01-30T07:50:15;14.98;;;11.77;;
35128;SDS011;21301;43.626;10.580;2024-01-30T07:52:42;28.45;;;26.05;;
35128;SDS011;21301;43.626;10.580;2024-01-30T07:55:08;9.80;;;7.65;;
35128;SDS011;21301;43.626;10.580;2024-01-30T07:57:35;10.90;;;9.77;;
35128;SDS011;21301;43.626;10.580;2024-01-30T08:00:01;9.82;;;7.53;;
35128;SDS011;21301;43.626;10.580;2024-01-30T08:02:32;12.70;;;8.48;;
35128;SDS011;21301;43.626;10.580;2024-01-30T08:04:57;15.40;;;9.23;;
35128;SDS011;21301;43.626;10.580;2024-01-30T08:07:23;13.15;;;8.63;;
35128;SDS011;21301;43.626;10.580;2024-01-30T08:09:49;14.32;;;7.97;;
35128;SDS011;21301;43.626;10.580;2024-01-30T08:12:14;14.57;;;9.07;;
35128;SDS011;21301;43.626;10.580;2024-01-30T08:14:40;13.50;;;8.70;;
35128;SDS011;21301;43.626;10.580;2024-01-30T08:17:06;12.23;;;8.02;;
35128;SDS011;21301;43.626;10.580;2024-01-30T08:19:32;13.80;;;7.88;;
35128;SDS011;21301;43.626;10.580;2024-01-30T08:21:58;12.05;;;7.88;;
35128;SDS011;21301;43.626;10.580;2024-01-30T08:24:24;11.00;;;7.63;;
35128;SDS011;21301;43.626;10.580;2024-01-30T08:26:50;13.95;;;7.60;;
35128;SDS011;21301;43.626;10.580;2024-01-30T08:29:16;11.65;;;7.57;;
35128;SDS011;21301;43.626;10.580;2024-01-30T08:31:42;12.10;;;7.65;;
35128;SDS011;21301;43.626;10.580;2024-01-30T08:34:07;13.40;;;8.15;;
35128;SDS011;21301;43.626;10.580;2024-01-30T08:36:34;18.15;;;9.13;;
35128;SDS011;21301;43.626;10.580;2024-01-30T08:38:59;19.35;;;11.43;;
35128;SDS011;21301;43.626;10.580;2024-01-30T08:41:25;13.88;;;9.43;;
35128;SDS011;21301;43.626;10.580;2024-01-30T08:43:52;15.82;;;9.52;;
35128;SDS011;21301;43.626;10.580;2024-01-30T08:46:18;15.27;;;9.10;;
35128;SDS011;21301;43.626;10.580;2024-01-30T08:48:44;15.65;;;9.07;;
35128;SDS011;21301;43.626;10.580;2024-01-30T08:51:10;17.88;;;9.95;;
35128;SDS011;21301;43.626;10.580;2024-01-30T08:53:36;18.05;;;9.73;;
35128;SDS011;21301;43.626;10.580;2024-01-30T08:56:02;16.67;;;10.75;;
35128;SDS011;21301;43.626;10.580;2024-01-30T08:58:28;20.42;;;10.48;;
35128;SDS011;21301;43.626;10.580;2024-01-30T09:00:54;20.60;;;11.07;;
35128;SDS011;21301;43.626;10.580;2024-01-30T09:03:20;20.23;;;11.73;;
35128;SDS011;21301;43.626;10.580;2024-01-30T09:05:46;22.20;;;10.95;;
35128;SDS011;21301;43.626;10.580;2024-01-30T09:08:11;21.08;;;11.95;;
35128;SDS011;21301;43.626;10.580;2024-01-30T09:10:37;19.27;;;12.20;;
35128;SDS011;21301;43.626;10.580;2024-01-30T09:13:02;19.85;;;11.75;;
35128;SDS011;21301;43.626;10.580;2024-01-30T09:15:30;22.60;;;10.77;;
35128;SDS011;21301;43.626;10.580;2024-01-30T09:17:55;18.63;;;11.57;;
35128;SDS011;21301;43.626;10.580;2024-01-30T09:20:21;22.05;;;12.20;;
35128;SDS011;21301;43.626;10.580;2024-01-30T09:22:48;18.95;;;11.30;;
35128;SDS011;21301;43.626;10.580;2024-01-30T09:25:14;19.63;;;10.52;;
35128;SDS011;21301;43.626;10.580;2024-01-30T09:27:40;24.35;;;12.73;;
35128;SDS011;21301;43.626;10.580;2024-01-30T09:30:06;21.38;;;12.10;;
35128;SDS011;21301;43.626;10.580;2024-01-30T09:32:33;20.60;;;12.07;;
35128;SDS011;21301;43.626;10.580;2024-01-30T09:34:59;27.13;;;13.98;;
35128;SDS011;21301;43.626;10.580;2024-01-30T09:37:24;25.42;;;14.88;;
35128;SDS011;21301;43.626;10.580;2024-01-30T09:39:50;28.17;;;13.48;;
35128;SDS011;21301;43.626;10.580;2024-01-30T09:44:58;13.45;;;8.68;;
35128;SDS011;21301;43.626;10.580;2024-01-30T09:47:23;20.65;;;10.45;;
35128;SDS011;21301;43.626;10.580;2024-01-30T09:49:49;15.45;;;8.27;;
35128;SDS011;21301;43.626;10.580;2024-01-30T09:52:16;15.95;;;7.90;;
35128;SDS011;21301;43.626;10.580;2024-01-30T09:54:43;13.15;;;8.30;;
35128;SDS011;21301;43.626;10.580;2024-01-30T09:57:11;11.30;;;7.22;;
35128;SDS011;21301;43.626;10.580;2024-01-30T09:59:37;16.00;;;9.10;;
35128;SDS011;21301;43.626;10.580;2024-01-30T10:02:10;14.95;;;8.60;;
35128;SDS011;21301;43.626;10.580;2024-01-30T10:04:35;14.57;;;8.35;;
35128;SDS011;21301;43.626;10.580;2024-01-30T10:07:04;14.25;;;8.88;;
35128;SDS011;21301;43.626;10.580;2024-01-30T10:09:34;15.70;;;7.97;;
35128;SDS011;21301;43.626;10.580;2024-01-30T10:12:02;16.85;;;8.52;;
35128;SDS011;21301;43.626;10.580;2024-01-30T10:14:28;12.95;;;8.95;;
35128;SDS011;21301;43.626;10.580;2024-01-30T10:16:55;17.60;;;10.20;;
35128;SDS011;21301;43.626;10.580;2024-01-30T10:19:21;18.50;;;10.77;;
35128;SDS011;21301;43.626;10.580;2024-01-30T10:21:46;16.60;;;10.15;;
35128;SDS011;21301;43.626;10.580;2024-01-30T10:24:12;18.63;;;10.95;;
35128;SDS011;21301;43.626;10.580;2024-01-30T10:26:40;18.15;;;10.02;;
35128;SDS011;21301;43.626;10.580;2024-01-30T10:29:08;20.63;;;10.90;;
35128;SDS011;21301;43.626;10.580;2024-01-30T10:31:34;18.83;;;10.73;;
35128;SDS011;21301;43.626;10.580;2024-01-30T10:34:00;16.90;;;10.45;;
35128;SDS011;21301;43.626;10.580;2024-01-30T10:36:27;26.30;;;9.18;;
35128;SDS011;21301;43.626;10.580;2024-01-30T10:38:57;17.48;;;9.63;;
35128;SDS011;21301;43.626;10.580;2024-01-30T10:41:27;14.35;;;7.88;;
35128;SDS011;21301;43.626;10.580;2024-01-30T10:43:58;15.10;;;9.25;;
35128;SDS011;21301;43.626;10.580;2024-01-30T10:46:34;15.77;;;9.27;;
35128;SDS011;21301;43.626;10.580;2024-01-30T10:49:02;17.15;;;8.82;;
35128;SDS011;21301;43.626;10.580;2024-01-30T10:51:31;16.00;;;9.23;;
35128;SDS011;21301;43.626;10.580;2024-01-30T10:53:57;15.48;;;8.70;;
35128;SDS011;21301;43.626;10.580;2024-01-30T10:56:23;13.63;;;7.88;;
35128;SDS011;21301;43.626;10.580;2024-01-30T10:58:50;16.15;;;7.75;;
35128;SDS011;21301;43.626;10.580;2024-01-30T11:01:18;15.43;;;8.20;;
35128;SDS011;21301;43.626;10.580;2024-01-30T11:03:48;15.85;;;8.57;;
35128;SDS011;21301;43.626;10.580;2024-01-30T11:06:17;15.98;;;9.43;;
35128;SDS011;21301;43.626;10.580;2024-01-30T11:08:44;16.92;;;9.63;;
35128;SDS011;21301;43.626;10.580;2024-01-30T11:11:10;14.52;;;8.27;;
35128;SDS011;21301;43.626;10.580;2024-01-30T11:13:36;14.45;;;8.68;;
35128;SDS011;21301;43.626;10.580;2024-01-30T11:16:02;22.27;;;8.57;;
35128;SDS011;21301;43.626;10.580;2024-01-30T11:18:29;15.23;;;8.70;;
35128;SDS011;21301;43.626;10.580;2024-01-30T11:20:58;14.07;;;7.45;;
35128;SDS011;21301;43.626;10.580;2024-01-30T11:23:27;15.13;;;8.93;;
35128;SDS011;21301;43.626;10.580;2024-01-30T11:25:57;14.90;;;8.15;;
35128;SDS011;21301;43.626;10.580;2024-01-30T11:28:22;16.33;;;10.02;;
35128;SDS011;21301;43.626;10.580;2024-01-30T11:30:48;16.67;;;10.52;;
35128;SDS011;21301;43.626;10.580;2024-01-30T11:33:26;12.88;;;8.40;;
35128;SDS011;21301;43.626;10.580;2024-01-30T11:35:56;15.32;;;9.38;;
35128;SDS011;21301;43.626;10.580;2024-01-30T11:38:25;15.95;;;9.15;;
35128;SDS011;21301;43.626;10.580;2024-01-30T11:40:52;13.38;;;7.97;;
35128;SDS011;21301;43.626;10.580;2024-01-30T11:43:19;16.33;;;8.07;;
35128;SDS011;21301;43.626;10.580;2024-01-30T11:45:46;13.48;;;8.45;;
35128;SDS011;21301;43.626;10.580;2024-01-30T11:48:13;15.10;;;8.50;;
35128;SDS011;21301;43.626;10.580;2024-01-30T11:50:39;13.88;;;8.43;;
35128;SDS011;21301;43.626;10.580;2024-01-30T11:53:07;12.20;;;7.95;;
35128;SDS011;21301;43.626;10.580;2024-01-30T11:55:35;13.75;;;8.20;;
35128;SDS011;21301;43.626;10.580;2024-01-30T11:58:04;14.77;;;8.50;;
35128;SDS011;21301;43.626;10.580;2024-01-30T12:00:30;15.07;;;9.55;;
35128;SDS011;21301;43.626;10.580;2024-01-30T12:02:58;15.43;;;9.45;;
35128;SDS011;21301;43.626;10.580;2024-01-30T12:05:26;15.40;;;9.13;;
35128;SDS011;21301;43.626;10.580;2024-01-30T12:07:52;17.17;;;9.52;;
35128;SDS011;21301;43.626;10.580;2024-01-30T12:10:17;15.52;;;9.02;;
35128;SDS011;21301;43.626;10.580;2024-01-30T12:12:47;16.10;;;9.80;;
35128;SDS011;21301;43.626;10.580;2024-01-30T12:15:15;15.48;;;10.10;;
35128;SDS011;21301;43.626;10.580;2024-01-30T12:17:41;21.42;;;10.93;;
35128;SDS011;21301;43.626;10.580;2024-01-30T12:22:37;16.85;;;9.77;;
35128;SDS011;21301;43.626;10.580;2024-01-30T12:25:13;18.63;;;11.65;;
35128;SDS011;21301;43.626;10.580;2024-01-30T12:27:43;18.38;;;10.85;;
35128;SDS011;21301;43.626;10.580;2024-01-30T12:30:15;18.67;;;9.60;;
35128;SDS011;21301;43.626;10.580;2024-01-30T12:32:42;22.40;;;11.90;;
35128;SDS011;21301;43.626;10.580;2024-01-30T12:35:10;16.58;;;10.68;;
35128;SDS011;21301;43.626;10.580;2024-01-30T12:37:36;17.77;;;11.00;;
35128;SDS011;21301;43.626;10.580;2024-01-30T12:40:03;16.45;;;10.75;;
35128;SDS011;21301;43.626;10.580;2024-01-30T12:42:29;20.77;;;11.05;;
35128;SDS011;21301;43.626;10.580;2024-01-30T12:44:57;16.65;;;9.65;;
35128;SDS011;21301;43.626;10.580;2024-01-30T12:47:23;17.42;;;10.40;;
35128;SDS011;21301;43.626;10.580;2024-01-30T12:49:48;12.35;;;8.93;;
35128;SDS011;21301;43.626;10.580;2024-01-30T12:52:19;17.73;;;9.57;;
35128;SDS011;21301;43.626;10.580;2024-01-30T12:54:46;21.55;;;10.27;;
35128;SDS011;21301;43.626;10.580;2024-01-30T12:57:12;19.00;;;10.45;;
35128;SDS011;21301;43.626;10.580;2024-01-30T12:59:37;15.80;;;9.55;;
35128;SDS011;21301;43.626;10.580;2024-01-30T13:02:04;16.33;;;9.88;;
35128;SDS011;21301;43.626;10.580;2024-01-30T13:04:30;18.60;;;10.73;;
35128;SDS011;21301;43.626;10.580;2024-01-30T13:06:56;15.45;;;9.70;;
35128;SDS011;21301;43.626;10.580;2024-01-30T13:09:22;22.25;;;11.02;;
35128;SDS011;21301;43.626;10.580;2024-01-30T13:11:48;19.55;;;11.20;;
35128;SDS011;21301;43.626;10.580;2024-01-30T13:14:15;20.90;;;10.13;;
35128;SDS011;21301;43.626;10.580;2024-01-30T13:16:40;15.35;;;9.80;;
35128;SDS011;21301;43.626;10.580;2024-01-30T13:19:06;14.55;;;8.98;;
35128;SDS011;21301;43.626;10.580;2024-01-30T13:21:31;18.92;;;9.20;;
35128;SDS011;21301;43.626;10.580;2024-01-30T13:23:57;13.07;;;9.43;;
35128;SDS011;21301;43.626;10.580;2024-01-30T13:26:22;14.50;;;8.93;;
35128;SDS011;21301;43.626;10.580;2024-01-30T13:28:49;18.00;;;9.23;;
35128;SDS011;21301;43.626;10.580;2024-01-30T13:31:19;18.75;;;9.48;;
35128;SDS011;21301;43.626;10.580;2024-01-30T13:33:44;15.57;;;9.38;;
35128;SDS011;21301;43.626;10.580;2024-01-30T13:36:10;14.88;;;8.00;;
35128;SDS011;21301;43.626;10.580;2024-01-30T13:38:37;19.33;;;7.65;;
35128;SDS011;21301;43.626;10.580;2024-01-30T13:41:03;13.05;;;7.63;;
35128;SDS011;21301;43.626;10.580;2024-01-30T13:43:28;12.05;;;7.65;;
35128;SDS011;21301;43.626;10.580;2024-01-30T13:45:54;17.20;;;8.60;;
35128;SDS011;21301;43.626;10.580;2024-01-30T13:48:22;12.48;;;7.90;;
35128;SDS011;21301;43.626;10.580;2024-01-30T13:50:47;12.80;;;7.82;;
35128;SDS011;21301;43.626;10.580;2024-01-30T13:53:13;15.00;;;7.13;;
35128;SDS011;21301;43.626;10.580;2024-01-30T13:55:39;15.85;;;8.25;;
35128;SDS011;21301;43.626;10.580;2024-01-30T13:58:05;15.73;;;8.25;;
35128;SDS011;21301;43.626;10.580;2024-01-30T14:00:31;13.40;;;8.63;;
35128;SDS011;21301;43.626;10.580;2024-01-30T14:02:57;11.02;;;6.93;;
35128;SDS011;21301;43.626;10.580;2024-01-30T14:05:24;14.05;;;8.50;;
35128;SDS011;21301;43.626;10.580;2024-01-30T14:07:50;12.95;;;7.78;;
35128;SDS011;21301;43.626;10.580;2024-01-30T14:10:17;13.05;;;8.23;;
35128;SDS011;21301;43.626;10.580;2024-01-30T14:12:44;14.20;;;7.00;;
35128;SDS011;21301;43.626;10.580;2024-01-30T14:15:11;10.93;;;7.63;;
35128;SDS011;21301;43.626;10.580;2024-01-30T14:17:38;17.20;;;6.90;;
35128;SDS011;21301;43.626;10.580;2024-01-30T14:20:03;13.60;;;7.57;;
35128;SDS011;21301;43.626;10.580;2024-01-30T14:22:30;11.90;;;7.07;;